• Join FlightAware (Why Join?)
  • Login
  • US Flag 
10:46PM EDT


 

Airport Tracker/Info


-or-


 

Live Flight TrackerFlight Track Log ✈ SWA378 ✈ 22-May-2013 ✈ KORF - KBWI

Flight Track Log - Related Links

Times and Time Zones

All times are in EDT time to prevent confusion due to time zone crossing. See the SWA378 flight status page for this flight to view local times or setup timezone preferences in your user account.

Time Position Orientation Groundspeed Altitude Reporting Facility
EDT Latitude Longitude Course Direction KTS MPH feet Rate Location/Type
08:46PM 36.8511 -76.2461 217° Southwest 185 213 3,600  Level Washington Center
08:47PM 36.8111 -76.2819 216° Southwest 185 213 6,800 3,600 Climbing Washington Center
08:48PM 36.7756 -76.3336 229° Southwest 213 245 10,900 3,060 Climbing Washington Center
08:49PM 36.8189 -76.4039 308° West 307 353 13,100 1,620 Climbing Washington Center
08:50PM 36.8747 -76.4825 312° West 367 422 14,000 480 Climbing Washington Center
08:51PM 36.9364 -76.5689 312° West 385 443 14,000  Level Washington Center
08:52PM 37.0025 -76.6581 313° West 378 435 14,000  Level Washington Center
08:53PM 37.0683 -76.7503 312° West 361 415 14,000 120 Level Washington Center
08:54PM 37.1342 -76.8450 311° West 361 415 14,300 960 Climbing Washington Center
08:55PM 37.2019 -76.9400 312° West 361 415 16,000 840 Climbing Washington Center
08:56PM 37.2781 -77.0508 311° West 369 425 16,000  Level Washington Center
08:57PM 37.3689 -77.1075 334° Northwest 369 425 16,000  Level Washington Center
08:58PM 37.4836 -77.1072 360° North 380 437 16,000  Level Washington Center
08:59PM 37.5858 -77.1117 358° North 395 455 16,000  Level Washington Center
09:00PM 37.6964 -77.1142 359° North 395 455 16,000  Level Washington Center
09:01PM 37.8111 -77.1189 358° North 400 460 16,000  Level Washington Center
09:02PM 37.9194 -77.1211 359° North 400 460 16,000  Level Washington Center
09:03PM 38.0361 -77.1261 358° North 400 460 16,000  Level Washington Center
09:04PM 38.1489 -77.1311 358° North 400 460 16,000 -120 Level Washington Center
09:05PM 38.2592 -77.1308 360° North 400 460 15,800 -540 Descending Washington Center
09:06PM 38.3803 -77.1331 359° North 400 460 15,000 -900 Descending Washington Center
09:07PM 38.4606 -77.0447 41° Northeast 369 425 14,000 -1,500 Descending Washington Center
09:08PM 38.5367 -76.9506 44° Northeast 369 425 12,000 -1,740 Descending Washington Center
09:09PM 38.6086 -76.8642 43° Northeast 358 412 10,600 -1,080 Descending Washington Center
09:10PM 38.6739 -76.7831 44° Northeast 340 391 9,900 -840 Descending Washington Center
09:11PM 38.7183 -76.7119 51° Northeast 314 361 9,000 -1,380 Descending Washington Center
09:12PM 38.7589 -76.6272 58° Northeast 290 334 7,200 -1,920 Descending Washington Center
09:12PM 38.8167 -76.6167 North 294 338 6,100 -1,620 Descending Potomac TRACON
09:13PM 38.8294 -76.6389 306° West 226 260 5,600 -1,080 Descending Washington Center
09:14PM 38.9500 -76.7167 333° Northwest 272 313 4,000 -660 Descending Potomac TRACON
09:15PM 39.0000 -76.7667 322° Northwest 272 313 4,000 -480 Level Potomac TRACON
09:16PM 39.0667 -76.8167 330° Northwest 275 316 3,100 -1,020 Descending Potomac TRACON
09:17PM 39.1333 -76.8500 339° North 262 302 2,000 -600 Descending Potomac TRACON
09:18PM 39.1833 -76.8333 14° North 206 237 2,000 -360 Level Potomac TRACON
09:19PM 39.1833 -76.7667 90° East 177 204 1,300 -720 Descending Potomac TRACON
09:20PM 39.1833 -76.7167 90° East 139 160 600 -720 Descending Potomac TRACON
09:22PM 39.1667 -76.6667 102° East  Level FlightAware Approximate
09:29PM 39.1754 -76.6683 102° East  Level Estimated
09:30PM 39.1754 -76.6683 102° East  Level Estimated
09:31PM 39.1754 -76.6683 102° East  Level Estimated
09:32PM 39.1754 -76.6683 102° East  Level Estimated